sensor_id;sensor_type;location;lat;lon;timestamp;pressure;altitude;pressure_sealevel;temperature;humidity
37852;BME280;23691;52.486;4.650;2023-04-01T00:00:15;98994.97;;;10.83;90.28
37852;BME280;23691;52.486;4.650;2023-04-01T00:02:42;98992.09;;;10.84;90.11
37852;BME280;23691;52.486;4.650;2023-04-01T00:05:08;98995.56;;;10.85;90.18
37852;BME280;23691;52.486;4.650;2023-04-01T00:07:33;98992.09;;;10.84;90.12
37852;BME280;23691;52.486;4.650;2023-04-01T00:09:58;99001.75;;;10.85;90.04
37852;BME280;23691;52.486;4.650;2023-04-01T00:12:24;99004.41;;;10.85;90.15
37852;BME280;23691;52.486;4.650;2023-04-01T00:14:50;98996.81;;;10.82;89.96
37852;BME280;23691;52.486;4.650;2023-04-01T00:17:15;99007.34;;;10.77;89.94
37852;BME280;23691;52.486;4.650;2023-04-01T00:19:41;99018.84;;;10.78;90.13
37852;BME280;23691;52.486;4.650;2023-04-01T00:22:08;99009.19;;;10.77;90.27
37852;BME280;23691;52.486;4.650;2023-04-01T00:24:36;99017.66;;;10.73;90.18
37852;BME280;23691;52.486;4.650;2023-04-01T00:27:02;99010.63;;;10.72;90.31
37852;BME280;23691;52.486;4.650;2023-04-01T00:29:27;99017.44;;;10.68;90.34
37852;BME280;23691;52.486;4.650;2023-04-01T00:31:55;99018.06;;;10.64;90.31
37852;BME280;23691;52.486;4.650;2023-04-01T00:34:20;99020.75;;;10.64;90.72
37852;BME280;23691;52.486;4.650;2023-04-01T00:36:46;99025.69;;;10.67;90.94
37852;BME280;23691;52.486;4.650;2023-04-01T00:39:12;99034.09;;;10.70;90.69
37852;BME280;23691;52.486;4.650;2023-04-01T00:41:37;99033.09;;;10.65;90.54
37852;BME280;23691;52.486;4.650;2023-04-01T00:44:16;99042.97;;;10.64;91.09
37852;BME280;23691;52.486;4.650;2023-04-01T00:46:43;99047.25;;;10.65;91.00
37852;BME280;23691;52.486;4.650;2023-04-01T00:49:08;99050.78;;;10.66;91.39
37852;BME280;23691;52.486;4.650;2023-04-01T00:51:35;99052.22;;;10.68;91.25
37852;BME280;23691;52.486;4.650;2023-04-01T00:54:03;99051.38;;;10.68;91.43
37852;BME280;23691;52.486;4.650;2023-04-01T00:56:39;99053.03;;;10.69;91.35
37852;BME280;23691;52.486;4.650;2023-04-01T00:59:10;99056.94;;;10.66;91.52
37852;BME280;23691;52.486;4.650;2023-04-01T01:01:37;99064.56;;;10.63;91.69
37852;BME280;23691;52.486;4.650;2023-04-01T01:04:05;99061.06;;;10.62;92.05
37852;BME280;23691;52.486;4.650;2023-04-01T01:06:39;99070.75;;;10.63;91.83
37852;BME280;23691;52.486;4.650;2023-04-01T01:14:03;99074.63;;;10.67;91.92
37852;BME280;23691;52.486;4.650;2023-04-01T01:16:35;99077.31;;;10.67;91.87
37852;BME280;23691;52.486;4.650;2023-04-01T01:19:11;99071.97;;;10.67;91.90
37852;BME280;23691;52.486;4.650;2023-04-01T01:24:57;99085.31;;;10.67;91.80
37852;BME280;23691;52.486;4.650;2023-04-01T01:27:04;99087.38;;;10.65;91.86
37852;BME280;23691;52.486;4.650;2023-04-01T01:29:54;99091.09;;;10.64;91.85
37852;BME280;23691;52.486;4.650;2023-04-01T01:32:30;99082.25;;;10.64;92.03
37852;BME280;23691;52.486;4.650;2023-04-01T01:37:30;99100.75;;;10.65;91.99
37852;BME280;23691;52.486;4.650;2023-04-01T01:39:58;99097.69;;;10.68;91.80
37852;BME280;23691;52.486;4.650;2023-04-01T01:42:25;99100.13;;;10.70;91.82
37852;BME280;23691;52.486;4.650;2023-04-01T01:44:52;99102.41;;;10.66;91.76
37852;BME280;23691;52.486;4.650;2023-04-01T01:47:18;99100.97;;;10.64;92.14
37852;BME280;23691;52.486;4.650;2023-04-01T01:49:44;99108.19;;;10.63;92.13
37852;BME280;23691;52.486;4.650;2023-04-01T01:52:11;99114.16;;;10.59;92.32
37852;BME280;23691;52.486;4.650;2023-04-01T01:54:36;99119.91;;;10.62;92.65
37852;BME280;23691;52.486;4.650;2023-04-01T01:57:08;99122.56;;;10.62;92.81
37852;BME280;23691;52.486;4.650;2023-04-01T01:59:35;99130.41;;;10.64;93.10
37852;BME280;23691;52.486;4.650;2023-04-01T02:02:03;99139.44;;;10.63;93.05
37852;BME280;23691;52.486;4.650;2023-04-01T02:04:34;99138.44;;;10.64;93.33
37852;BME280;23691;52.486;4.650;2023-04-01T02:07:00;99141.50;;;10.67;93.46
37852;BME280;23691;52.486;4.650;2023-04-01T02:09:27;99153.25;;;10.66;93.69
37852;BME280;23691;52.486;4.650;2023-04-01T02:11:56;99162.06;;;10.67;93.90
37852;BME280;23691;52.486;4.650;2023-04-01T02:14:25;99164.56;;;10.68;94.04
37852;BME280;23691;52.486;4.650;2023-04-01T02:16:53;99168.25;;;10.67;94.24
37852;BME280;23691;52.486;4.650;2023-04-01T02:19:20;99170.72;;;10.69;94.44
37852;BME280;23691;52.486;4.650;2023-04-01T02:21:51;99177.50;;;10.71;94.61
37852;BME280;23691;52.486;4.650;2023-04-01T02:24:18;99184.09;;;10.76;94.49
37852;BME280;23691;52.486;4.650;2023-04-01T02:26:47;99177.91;;;10.75;94.54
37852;BME280;23691;52.486;4.650;2023-04-01T02:29:13;99186.16;;;10.73;94.76
37852;BME280;23691;52.486;4.650;2023-04-01T02:31:39;99188.00;;;10.80;94.79
37852;BME280;23691;52.486;4.650;2023-04-01T02:34:12;99186.75;;;10.82;94.59
37852;BME280;23691;52.486;4.650;2023-04-01T02:36:45;99186.97;;;10.81;94.62
37852;BME280;23691;52.486;4.650;2023-04-01T02:39:12;99190.47;;;10.74;94.70
37852;BME280;23691;52.486;4.650;2023-04-01T02:41:38;99195.19;;;10.72;94.81
37852;BME280;23691;52.486;4.650;2023-04-01T02:44:04;99199.09;;;10.70;95.30
37852;BME280;23691;52.486;4.650;2023-04-01T02:46:32;99204.25;;;10.71;95.29
37852;BME280;23691;52.486;4.650;2023-04-01T02:49:01;99203.63;;;10.69;95.37
37852;BME280;23691;52.486;4.650;2023-04-01T02:51:26;99213.28;;;10.70;95.20
37852;BME280;23691;52.486;4.650;2023-04-01T02:53:52;99224.00;;;10.70;95.21
37852;BME280;23691;52.486;4.650;2023-04-01T02:56:25;99227.50;;;10.71;95.38
37852;BME280;23691;52.486;4.650;2023-04-01T02:58:53;99233.25;;;10.68;95.09
37852;BME280;23691;52.486;4.650;2023-04-01T03:01:20;99234.47;;;10.65;95.18
37852;BME280;23691;52.486;4.650;2023-04-01T03:03:45;99241.50;;;10.66;95.15
37852;BME280;23691;52.486;4.650;2023-04-01T03:06:12;99249.72;;;10.65;95.12
37852;BME280;23691;52.486;4.650;2023-04-01T03:08:37;99255.47;;;10.62;95.28
37852;BME280;23691;52.486;4.650;2023-04-01T03:11:05;99258.34;;;10.60;95.38
37852;BME280;23691;52.486;4.650;2023-04-01T03:13:33;99269.03;;;10.60;95.20
37852;BME280;23691;52.486;4.650;2023-04-01T03:15:58;99267.19;;;10.54;95.22
37852;BME280;23691;52.486;4.650;2023-04-01T03:18:28;99269.84;;;10.47;95.30
37852;BME280;23691;52.486;4.650;2023-04-01T03:20:53;99281.97;;;10.50;95.48
37852;BME280;23691;52.486;4.650;2023-04-01T03:23:18;99277.47;;;10.44;95.51
37852;BME280;23691;52.486;4.650;2023-04-01T03:25:49;99286.47;;;10.43;95.51
37852;BME280;23691;52.486;4.650;2023-04-01T03:28:23;99288.75;;;10.39;95.55
37852;BME280;23691;52.486;4.650;2023-04-01T03:30:49;99295.72;;;10.34;95.60
37852;BME280;23691;52.486;4.650;2023-04-01T03:33:16;99290.13;;;10.28;95.67
37852;BME280;23691;52.486;4.650;2023-04-01T03:35:44;99301.69;;;10.29;96.12
37852;BME280;23691;52.486;4.650;2023-04-01T03:38:10;99304.50;;;10.27;96.12
37852;BME280;23691;52.486;4.650;2023-04-01T03:40:38;99305.72;;;10.25;96.50
37852;BME280;23691;52.486;4.650;2023-04-01T03:43:07;99306.38;;;10.27;96.56
37852;BME280;23691;52.486;4.650;2023-04-01T03:45:45;99304.91;;;10.24;96.48
37852;BME280;23691;52.486;4.650;2023-04-01T03:48:11;99313.94;;;10.23;96.26
37852;BME280;23691;52.486;4.650;2023-04-01T03:50:39;99321.59;;;10.26;96.52
37852;BME280;23691;52.486;4.650;2023-04-01T03:53:07;99322.81;;;10.24;96.44
37852;BME280;23691;52.486;4.650;2023-04-01T03:55:32;99328.97;;;10.24;96.60
37852;BME280;23691;52.486;4.650;2023-04-01T03:58:03;99333.69;;;10.22;96.50
37852;BME280;23691;52.486;4.650;2023-04-01T04:00:29;99337.59;;;10.20;96.34
37852;BME280;23691;52.486;4.650;2023-04-01T04:02:54;99345.38;;;10.15;96.52
37852;BME280;23691;52.486;4.650;2023-04-01T04:05:22;99351.34;;;10.17;96.46
37852;BME280;23691;52.486;4.650;2023-04-01T04:07:47;99350.91;;;10.13;96.69
37852;BME280;23691;52.486;4.650;2023-04-01T04:10:14;99355.03;;;10.16;96.58
37852;BME280;23691;52.486;4.650;2023-04-01T04:12:39;99352.34;;;10.16;96.83
37852;BME280;23691;52.486;4.650;2023-04-01T04:15:05;99361.19;;;10.16;96.98
37852;BME280;23691;52.486;4.650;2023-04-01T04:17:34;99359.78;;;10.20;97.07
37852;BME280;23691;52.486;4.650;2023-04-01T04:19:59;99371.50;;;10.19;96.75
37852;BME280;23691;52.486;4.650;2023-04-01T04:22:26;99377.03;;;10.18;96.60
37852;BME280;23691;52.486;4.650;2023-04-01T04:24:52;99381.16;;;10.20;96.69
37852;BME280;23691;52.486;4.650;2023-04-01T04:27:17;99385.47;;;10.21;96.69
37852;BME280;23691;52.486;4.650;2023-04-01T04:29:43;99390.41;;;10.18;96.63
37852;BME280;23691;52.486;4.650;2023-04-01T04:32:09;99398.19;;;10.13;96.55
37852;BME280;23691;52.486;4.650;2023-04-01T04:34:34;99390.56;;;10.09;96.57
37852;BME280;23691;52.486;4.650;2023-04-01T04:37:02;99414.81;;;10.08;96.73
37852;BME280;23691;52.486;4.650;2023-04-01T04:39:29;99407.19;;;10.05;96.69
37852;BME280;23691;52.486;4.650;2023-04-01T04:41:55;99418.06;;;10.03;96.88
37852;BME280;23691;52.486;4.650;2023-04-01T04:44:21;99417.44;;;10.01;96.95
37852;BME280;23691;52.486;4.650;2023-04-01T04:46:46;99417.44;;;10.01;97.04
37852;BME280;23691;52.486;4.650;2023-04-01T04:49:13;99420.75;;;10.03;96.87
37852;BME280;23691;52.486;4.650;2023-04-01T04:51:40;99431.63;;;10.02;96.92
37852;BME280;23691;52.486;4.650;2023-04-01T04:54:05;99434.69;;;9.99;96.86
37852;BME280;23691;52.486;4.650;2023-04-01T04:56:31;99433.03;;;9.98;97.09
37852;BME280;23691;52.486;4.650;2023-04-01T04:58:59;99436.94;;;9.95;97.11
37852;BME280;23691;52.486;4.650;2023-04-01T05:01:24;99436.94;;;9.95;96.98
37852;BME280;23691;52.486;4.650;2023-04-01T05:03:50;99445.13;;;9.94;97.14
37852;BME280;23691;52.486;4.650;2023-04-01T05:06:16;99452.50;;;9.92;97.22
37852;BME280;23691;52.486;4.650;2023-04-01T05:08:42;99450.22;;;9.88;97.14
37852;BME280;23691;52.486;4.650;2023-04-01T05:11:11;99451.44;;;9.86;97.36
37852;BME280;23691;52.486;4.650;2023-04-01T05:13:37;99470.97;;;9.86;97.83
37852;BME280;23691;52.486;4.650;2023-04-01T05:16:03;99467.47;;;9.86;97.63
37852;BME280;23691;52.486;4.650;2023-04-01T05:18:28;99476.31;;;9.86;97.63
37852;BME280;23691;52.486;4.650;2023-04-01T05:20:54;99483.50;;;9.86;97.28
37852;BME280;23691;52.486;4.650;2023-04-01T05:23:25;99484.72;;;9.83;97.64
37852;BME280;23691;52.486;4.650;2023-04-01T05:25:54;99488.59;;;9.81;97.38
37852;BME280;23691;52.486;4.650;2023-04-01T05:28:22;99490.44;;;9.80;97.53
37852;BME280;23691;52.486;4.650;2023-04-01T05:30:53;99488.59;;;9.81;97.60
37852;BME280;23691;52.486;4.650;2023-04-01T05:33:18;99485.09;;;9.80;97.73
37852;BME280;23691;52.486;4.650;2023-04-01T05:35:44;99498.06;;;9.83;97.56
37852;BME280;23691;52.486;4.650;2023-04-01T05:38:11;99498.88;;;9.84;97.54
37852;BME280;23691;52.486;4.650;2023-04-01T05:40:40;99501.31;;;9.79;97.52
37852;BME280;23691;52.486;4.650;2023-04-01T05:43:05;99502.78;;;9.81;97.54
37852;BME280;23691;52.486;4.650;2023-04-01T05:45:30;99507.13;;;9.82;97.64
37852;BME280;23691;52.486;4.650;2023-04-01T05:47:56;99510.22;;;9.86;97.45
37852;BME280;23691;52.486;4.650;2023-04-01T05:50:25;99516.38;;;9.86;97.48
37852;BME280;23691;52.486;4.650;2023-04-01T05:52:54;99516.13;;;9.81;97.43
37852;BME280;23691;52.486;4.650;2023-04-01T05:55:22;99518.16;;;9.79;97.56
37852;BME280;23691;52.486;4.650;2023-04-01T05:57:47;99522.03;;;9.77;97.62
37852;BME280;23691;52.486;4.650;2023-04-01T06:00:17;99521.03;;;9.78;97.81
37852;BME280;23691;52.486;4.650;2023-04-01T06:02:51;99533.19;;;9.80;97.77
37852;BME280;23691;52.486;4.650;2023-04-01T06:05:21;99546.53;;;9.80;97.74
37852;BME280;23691;52.486;4.650;2023-04-01T06:07:47;99545.72;;;9.80;97.77
37852;BME280;23691;52.486;4.650;2023-04-01T06:10:16;99544.25;;;9.77;97.60
37852;BME280;23691;52.486;4.650;2023-04-01T06:13:06;99543.16;;;9.72;97.69
37852;BME280;23691;52.486;4.650;2023-04-01T06:15:45;99553.03;;;9.71;97.93
37852;BME280;23691;52.486;4.650;2023-04-01T06:21:00;99564.97;;;9.75;98.14
37852;BME280;23691;52.486;4.650;2023-04-01T06:26:37;99564.03;;;9.83;98.24
37852;BME280;23691;52.486;4.650;2023-04-01T06:29:27;99568.81;;;9.87;98.26
37852;BME280;23691;52.486;4.650;2023-04-01T06:32:06;99571.91;;;9.91;98.07
37852;BME280;23691;52.486;4.650;2023-04-01T06:56:15;99617.22;;;9.99;97.37
37852;BME280;23691;52.486;4.650;2023-04-01T06:59:26;99614.97;;;10.03;97.52
37852;BME280;23691;52.486;4.650;2023-04-01T07:01:35;99621.59;;;10.07;97.47
37852;BME280;23691;52.486;4.650;2023-04-01T07:04:06;99621.22;;;10.10;97.05
37852;BME280;23691;52.486;4.650;2023-04-01T07:06:55;99624.72;;;10.10;97.08
37852;BME280;23691;52.486;4.650;2023-04-01T07:09:22;99634.00;;;10.15;97.03
37852;BME280;23691;52.486;4.650;2023-04-01T07:11:51;99638.41;;;10.22;97.11
37852;BME280;23691;52.486;4.650;2023-04-01T07:17:47;99648.66;;;10.40;96.35
37852;BME280;23691;52.486;4.650;2023-04-01T07:20:11;99650.38;;;10.48;96.63
37852;BME280;23691;52.486;4.650;2023-04-01T07:22:46;99652.63;;;10.44;96.15
37852;BME280;23691;52.486;4.650;2023-04-01T07:25:18;99655.06;;;10.46;96.14
37852;BME280;23691;52.486;4.650;2023-04-01T07:27:45;99664.38;;;10.50;96.04
37852;BME280;23691;52.486;4.650;2023-04-01T07:30:21;99667.50;;;10.53;95.90
37852;BME280;23691;52.486;4.650;2023-04-01T07:50:43;99694.28;;;10.60;95.28
37852;BME280;23691;52.486;4.650;2023-04-01T07:53:33;99691.63;;;10.60;95.02
37852;BME280;23691;52.486;4.650;2023-04-01T07:58:38;99700.53;;;10.67;95.04
37852;BME280;23691;52.486;4.650;2023-04-01T08:01:18;99702.69;;;10.79;94.91
37852;BME280;23691;52.486;4.650;2023-04-01T08:06:19;99715.50;;;10.83;94.50
37852;BME280;23691;52.486;4.650;2023-04-01T08:08:55;99711.59;;;10.86;94.42
37852;BME280;23691;52.486;4.650;2023-04-01T08:19:47;99733.03;;;10.92;93.84
37852;BME280;23691;52.486;4.650;2023-04-01T08:22:22;99733.00;;;10.86;93.86
37852;BME280;23691;52.486;4.650;2023-04-01T08:24:56;99736.94;;;10.90;93.96
37852;BME280;23691;52.486;4.650;2023-04-01T08:30:39;99742.19;;;11.05;93.69
37852;BME280;23691;52.486;4.650;2023-04-01T08:33:24;99748.88;;;11.15;93.64
37852;BME280;23691;52.486;4.650;2023-04-01T08:35:56;99752.22;;;11.24;93.25
37852;BME280;23691;52.486;4.650;2023-04-01T08:38:30;99748.72;;;11.24;93.16
37852;BME280;23691;52.486;4.650;2023-04-01T08:47:20;99762.38;;;11.07;93.18
37852;BME280;23691;52.486;4.650;2023-04-01T09:08:30;99788.69;;;11.25;92.99
37852;BME280;23691;52.486;4.650;2023-04-01T09:24:41;99803.22;;;11.44;92.47
37852;BME280;23691;52.486;4.650;2023-04-01T09:27:28;99799.72;;;11.44;92.64
37852;BME280;23691;52.486;4.650;2023-04-01T09:32:53;99814.56;;;11.39;92.43
37852;BME280;23691;52.486;4.650;2023-04-01T09:51:31;99839.03;;;11.65;92.44
37852;BME280;23691;52.486;4.650;2023-04-01T09:54:14;99843.41;;;11.72;92.39
37852;BME280;23691;52.486;4.650;2023-04-01T10:20:15;99867.50;;;13.23;87.30
37852;BME280;23691;52.486;4.650;2023-04-01T10:26:14;99865.69;;;13.37;86.54
37852;BME280;23691;52.486;4.650;2023-04-01T10:28:51;99881.16;;;13.15;86.41
37852;BME280;23691;52.486;4.650;2023-04-01T10:32:25;99875.13;;;13.00;86.09
37852;BME280;23691;52.486;4.650;2023-04-01T10:52:52;99896.94;;;12.70;87.28
37852;BME280;23691;52.486;4.650;2023-04-01T10:55:40;99909.78;;;12.81;87.28
37852;BME280;23691;52.486;4.650;2023-04-01T10:58:20;99897.59;;;12.85;87.13
37852;BME280;23691;52.486;4.650;2023-04-01T11:24:24;99916.53;;;13.92;83.84
37852;BME280;23691;52.486;4.650;2023-04-01T11:26:52;99927.25;;;14.05;83.40
37852;BME280;23691;52.486;4.650;2023-04-01T11:32:15;99927.63;;;14.22;83.34
37852;BME280;23691;52.486;4.650;2023-04-01T11:37:37;99944.44;;;14.04;83.10
37852;BME280;23691;52.486;4.650;2023-04-01T12:08:12;99982.41;;;14.68;79.18
37852;BME280;23691;52.486;4.650;2023-04-01T12:10:48;99984.88;;;14.69;78.55
37852;BME280;23691;52.486;4.650;2023-04-01T12:13:35;99983.59;;;14.78;78.02
37852;BME280;23691;52.486;4.650;2023-04-01T12:23:51;100001.44;;;14.79;76.79
37852;BME280;23691;52.486;4.650;2023-04-01T12:29:12;100006.50;;;15.01;75.90
37852;BME280;23691;52.486;4.650;2023-04-01T12:34:40;100015.78;;;15.12;75.59
37852;BME280;23691;52.486;4.650;2023-04-01T12:47:16;100033.78;;;15.18;74.67
37852;BME280;23691;52.486;4.650;2023-04-01T12:49:55;100036.81;;;14.83;74.74
37852;BME280;23691;52.486;4.650;2023-04-01T12:52:26;100041.63;;;14.74;75.51
37852;BME280;23691;52.486;4.650;2023-04-01T13:00:14;100042.19;;;14.96;75.24
37852;BME280;23691;52.486;4.650;2023-04-01T13:02:58;100051.47;;;14.94;74.92
37852;BME280;23691;52.486;4.650;2023-04-01T13:10:31;100062.75;;;14.17;76.90
37852;BME280;23691;52.486;4.650;2023-04-01T13:13:16;100058.84;;;13.93;77.78
37852;BME280;23691;52.486;4.650;2023-04-01T13:18:14;100080.13;;;14.15;78.19
37852;BME280;23691;52.486;4.650;2023-04-01T13:25:59;100102.25;;;13.84;79.62
37852;BME280;23691;52.486;4.650;2023-04-01T13:28:38;100096.84;;;13.70;80.05
37852;BME280;23691;52.486;4.650;2023-04-01T13:33:36;100105.13;;;13.69;80.35
37852;BME280;23691;52.486;4.650;2023-04-01T13:41:39;100132.41;;;13.72;80.18
37852;BME280;23691;52.486;4.650;2023-04-01T13:44:14;100130.34;;;13.74;80.12
37852;BME280;23691;52.486;4.650;2023-04-01T13:46:51;100127.69;;;13.81;79.87
37852;BME280;23691;52.486;4.650;2023-04-01T13:54:50;100137.81;;;13.79;79.07
37852;BME280;23691;52.486;4.650;2023-04-01T14:00:10;100143.59;;;13.83;79.08
37852;BME280;23691;52.486;4.650;2023-04-01T14:02:46;100154.13;;;13.71;79.24
37852;BME280;23691;52.486;4.650;2023-04-01T14:07:50;100154.28;;;13.56;79.14
37852;BME280;23691;52.486;4.650;2023-04-01T14:20:33;100183.00;;;13.56;79.22
37852;BME280;23691;52.486;4.650;2023-04-01T14:28:20;100196.22;;;13.50;79.14
37852;BME280;23691;52.486;4.650;2023-04-01T14:33:21;100204.94;;;13.24;79.17
37852;BME280;23691;52.486;4.650;2023-04-01T14:38:35;100216.28;;;13.20;79.53
37852;BME280;23691;52.486;4.650;2023-04-01T14:43:58;100227.56;;;13.08;79.47
37852;BME280;23691;52.486;4.650;2023-04-01T14:49:04;100240.50;;;12.98;79.63
37852;BME280;23691;52.486;4.650;2023-04-01T14:51:39;100251.00;;;12.93;79.54
37852;BME280;23691;52.486;4.650;2023-04-01T14:54:08;100253.03;;;12.91;79.38
37852;BME280;23691;52.486;4.650;2023-04-01T14:59:04;100255.47;;;12.86;79.40
37852;BME280;23691;52.486;4.650;2023-04-01T15:04:15;100259.63;;;12.88;79.25
37852;BME280;23691;52.486;4.650;2023-04-01T15:12:14;100273.44;;;12.85;78.69
37852;BME280;23691;52.486;4.650;2023-04-01T15:17:22;100295.63;;;12.73;78.61
37852;BME280;23691;52.486;4.650;2023-04-01T15:28:21;100306.81;;;12.76;78.51
37852;BME280;23691;52.486;4.650;2023-04-01T15:35:49;100337.47;;;12.45;78.77
37852;BME280;23691;52.486;4.650;2023-04-01T15:43:39;100356.09;;;12.17;79.55
37852;BME280;23691;52.486;4.650;2023-04-01T15:46:20;100360.50;;;12.25;79.63
37852;BME280;23691;52.486;4.650;2023-04-01T15:51:23;100364.97;;;12.18;79.58
37852;BME280;23691;52.486;4.650;2023-04-01T15:56:41;100372.66;;;12.21;80.16
37852;BME280;23691;52.486;4.650;2023-04-01T15:59:16;100389.94;;;12.18;79.91
37852;BME280;23691;52.486;4.650;2023-04-01T16:01:56;100387.53;;;12.09;79.88
37852;BME280;23691;52.486;4.650;2023-04-01T16:04:28;100399.66;;;12.05;80.31
37852;BME280;23691;52.486;4.650;2023-04-01T16:09:35;100413.78;;;11.98;80.33
37852;BME280;23691;52.486;4.650;2023-04-01T16:12:07;100407.97;;;11.95;80.36
37852;BME280;23691;52.486;4.650;2023-04-01T16:19:41;100425.06;;;11.94;79.88
37852;BME280;23691;52.486;4.650;2023-04-01T16:22:12;100425.63;;;11.89;79.52
37852;BME280;23691;52.486;4.650;2023-04-01T16:24:41;100431.28;;;11.86;79.56
37852;BME280;23691;52.486;4.650;2023-04-01T16:34:30;100441.72;;;11.81;79.33
37852;BME280;23691;52.486;4.650;2023-04-01T16:37:20;100449.78;;;11.81;79.50
37852;BME280;23691;52.486;4.650;2023-04-01T16:39:54;100451.84;;;11.79;79.57
37852;BME280;23691;52.486;4.650;2023-04-01T16:47:40;100473.03;;;11.66;79.31
37852;BME280;23691;52.486;4.650;2023-04-01T16:50:12;100472.88;;;11.67;79.33
37852;BME280;23691;52.486;4.650;2023-04-01T16:52:48;100495.25;;;11.74;79.21
37852;BME280;23691;52.486;4.650;2023-04-01T16:55:20;100494.41;;;11.74;79.02
37852;BME280;23691;52.486;4.650;2023-04-01T16:57:58;100490.22;;;11.71;78.83
37852;BME280;23691;52.486;4.650;2023-04-01T17:05:52;100515.69;;;11.52;79.03
37852;BME280;23691;52.486;4.650;2023-04-01T17:16:01;100530.50;;;11.40;79.43
37852;BME280;23691;52.486;4.650;2023-04-01T17:34:17;100579.69;;;11.16;79.98
37852;BME280;23691;52.486;4.650;2023-04-01T17:52:28;100640.69;;;10.81;80.18
37852;BME280;23691;52.486;4.650;2023-04-01T17:57:46;100648.94;;;10.63;80.22
37852;BME280;23691;52.486;4.650;2023-04-01T18:00:18;100642.25;;;10.59;80.55
37852;BME280;23691;52.486;4.650;2023-04-01T18:03:00;100660.31;;;10.57;80.60
37852;BME280;23691;52.486;4.650;2023-04-01T18:18:41;100694.25;;;10.40;81.16
37852;BME280;23691;52.486;4.650;2023-04-01T18:21:26;100701.44;;;10.40;81.17
37852;BME280;23691;52.486;4.650;2023-04-01T18:24:06;100706.78;;;10.40;81.08
37852;BME280;23691;52.486;4.650;2023-04-01T18:26:38;100716.81;;;10.29;80.73
37852;BME280;23691;52.486;4.650;2023-04-01T18:31:51;100732.63;;;10.15;81.00
37852;BME280;23691;52.486;4.650;2023-04-01T18:34:39;100736.47;;;10.12;80.89
37852;BME280;23691;52.486;4.650;2023-04-01T18:37:28;100744.84;;;10.17;81.00
37852;BME280;23691;52.486;4.650;2023-04-01T18:39:52;100761.22;;;10.14;80.96
37852;BME280;23691;52.486;4.650;2023-04-01T18:47:50;100769.19;;;9.98;81.39
37852;BME280;23691;52.486;4.650;2023-04-01T18:50:32;100786.19;;;9.97;81.29
37852;BME280;23691;52.486;4.650;2023-04-01T18:53:09;100781.03;;;9.95;81.17
37852;BME280;23691;52.486;4.650;2023-04-01T18:55:40;100795.03;;;9.89;81.03
37852;BME280;23691;52.486;4.650;2023-04-01T19:00:48;100815.91;;;9.85;81.29
37852;BME280;23691;52.486;4.650;2023-04-01T19:05:41;100821.03;;;9.79;81.47
37852;BME280;23691;52.486;4.650;2023-04-01T19:11:23;100843.56;;;9.76;81.67
37852;BME280;23691;52.486;4.650;2023-04-01T19:13:55;100848.41;;;9.73;81.54
37852;BME280;23691;52.486;4.650;2023-04-01T19:28:57;100876.50;;;9.51;80.94
37852;BME280;23691;52.486;4.650;2023-04-01T19:36:47;100889.31;;;9.47;81.07
37852;BME280;23691;52.486;4.650;2023-04-01T19:41:51;100901.69;;;9.48;81.14
37852;BME280;23691;52.486;4.650;2023-04-01T19:47:15;100909.94;;;9.37;81.53
37852;BME280;23691;52.486;4.650;2023-04-01T19:55:11;100933.53;;;9.23;81.39
37852;BME280;23691;52.486;4.650;2023-04-01T19:57:55;100942.38;;;9.24;81.61
37852;BME280;23691;52.486;4.650;2023-04-01T20:03:02;100940.53;;;9.24;81.26
37852;BME280;23691;52.486;4.650;2023-04-01T20:05:34;100949.38;;;9.25;81.45
37852;BME280;23691;52.486;4.650;2023-04-01T20:19:23;100988.13;;;9.11;81.63
37852;BME280;23691;52.486;4.650;2023-04-01T20:21:53;100996.84;;;9.13;81.72
37852;BME280;23691;52.486;4.650;2023-04-01T20:24:23;101000.03;;;9.17;81.67
37852;BME280;23691;52.486;4.650;2023-04-01T20:26:59;100999.50;;;9.13;81.55
37852;BME280;23691;52.486;4.650;2023-04-01T20:37:10;101027.28;;;8.93;81.44
37852;BME280;23691;52.486;4.650;2023-04-01T20:42:39;101037.00;;;8.94;81.35
37852;BME280;23691;52.486;4.650;2023-04-01T20:47:45;101043.28;;;8.93;81.10
37852;BME280;23691;52.486;4.650;2023-04-01T20:50:29;101050.06;;;8.87;80.95
37852;BME280;23691;52.486;4.650;2023-04-01T20:52:57;101048.94;;;8.90;81.29
37852;BME280;23691;52.486;4.650;2023-04-01T21:01:14;101069.09;;;8.74;80.96
37852;BME280;23691;52.486;4.650;2023-04-01T21:21:39;101119.38;;;8.69;81.08
37852;BME280;23691;52.486;4.650;2023-04-01T21:34:29;101142.38;;;8.70;80.85
37852;BME280;23691;52.486;4.650;2023-04-01T21:37:17;101147.75;;;8.60;80.52
37852;BME280;23691;52.486;4.650;2023-04-01T21:39:53;101145.66;;;8.54;80.56
37852;BME280;23691;52.486;4.650;2023-04-01T21:47:51;101178.38;;;8.37;80.57
37852;BME280;23691;52.486;4.650;2023-04-01T22:00:53;101195.06;;;8.49;80.88
37852;BME280;23691;52.486;4.650;2023-04-01T22:16:04;101229.03;;;8.37;80.44
37852;BME280;23691;52.486;4.650;2023-04-01T22:18:34;101227.91;;;8.30;80.24
37852;BME280;23691;52.486;4.650;2023-04-01T22:21:11;101230.41;;;8.22;80.09
37852;BME280;23691;52.486;4.650;2023-04-01T22:23:59;101247.81;;;8.16;80.26
37852;BME280;23691;52.486;4.650;2023-04-01T22:31:49;101254.97;;;8.15;80.30
37852;BME280;23691;52.486;4.650;2023-04-01T22:34:20;101255.50;;;8.19;80.29
37852;BME280;23691;52.486;4.650;2023-04-01T22:39:36;101264.50;;;8.18;80.08
37852;BME280;23691;52.486;4.650;2023-04-01T22:45:02;101280.09;;;8.23;80.10
37852;BME280;23691;52.486;4.650;2023-04-01T22:50:27;101290.72;;;8.13;79.61
37852;BME280;23691;52.486;4.650;2023-04-01T22:53:08;101291.56;;;8.04;79.42
37852;BME280;23691;52.486;4.650;2023-04-01T22:55:41;101296.88;;;8.04;79.54
37852;BME280;23691;52.486;4.650;2023-04-01T22:58:10;101306.81;;;8.02;79.78
37852;BME280;23691;52.486;4.650;2023-04-01T23:00:40;101307.41;;;8.05;79.58
37852;BME280;23691;52.486;4.650;2023-04-01T23:03:18;101314.69;;;8.03;79.55
37852;BME280;23691;52.486;4.650;2023-04-01T23:06:03;101310.59;;;7.99;79.33
37852;BME280;23691;52.486;4.650;2023-04-01T23:11:04;101329.66;;;7.94;79.43